sensor_id;sensor_type;location;lat;lon;timestamp;P1;durP1;ratioP1;P2;durP2;ratioP2
69310;SDS011;56430;48.154;16.458;2023-08-21T00:00:31;9.20;;;6.05;;
69310;SDS011;56430;48.154;16.458;2023-08-21T00:02:59;11.15;;;6.28;;
69310;SDS011;56430;48.154;16.458;2023-08-21T00:05:26;8.40;;;5.63;;
69310;SDS011;56430;48.154;16.458;2023-08-21T00:07:52;12.05;;;5.88;;
69310;SDS011;56430;48.154;16.458;2023-08-21T00:10:19;11.63;;;5.95;;
69310;SDS011;56430;48.154;16.458;2023-08-21T00:12:46;12.68;;;6.22;;
69310;SDS011;56430;48.154;16.458;2023-08-21T00:15:13;9.15;;;5.35;;
69310;SDS011;56430;48.154;16.458;2023-08-21T00:17:40;10.00;;;6.70;;
69310;SDS011;56430;48.154;16.458;2023-08-21T00:20:08;13.03;;;6.17;;
69310;SDS011;56430;48.154;16.458;2023-08-21T00:22:36;10.77;;;6.38;;
69310;SDS011;56430;48.154;16.458;2023-08-21T00:25:03;11.63;;;6.53;;
69310;SDS011;56430;48.154;16.458;2023-08-21T00:27:30;11.38;;;6.30;;
69310;SDS011;56430;48.154;16.458;2023-08-21T00:29:57;11.45;;;6.50;;
69310;SDS011;56430;48.154;16.458;2023-08-21T00:32:24;11.33;;;5.97;;
69310;SDS011;56430;48.154;16.458;2023-08-21T00:34:51;12.20;;;6.70;;
69310;SDS011;56430;48.154;16.458;2023-08-21T00:37:19;12.23;;;6.72;;
69310;SDS011;56430;48.154;16.458;2023-08-21T00:39:46;10.35;;;6.63;;
69310;SDS011;56430;48.154;16.458;2023-08-21T00:42:13;9.88;;;6.72;;
69310;SDS011;56430;48.154;16.458;2023-08-21T00:44:40;10.10;;;6.40;;
69310;SDS011;56430;48.154;16.458;2023-08-21T00:47:06;10.57;;;6.47;;
69310;SDS011;56430;48.154;16.458;2023-08-21T00:49:34;12.07;;;7.10;;
69310;SDS011;56430;48.154;16.458;2023-08-21T00:52:01;10.48;;;6.78;;
69310;SDS011;56430;48.154;16.458;2023-08-21T00:54:29;8.82;;;6.45;;
69310;SDS011;56430;48.154;16.458;2023-08-21T00:56:56;11.50;;;7.20;;
69310;SDS011;56430;48.154;16.458;2023-08-21T00:59:23;10.52;;;6.60;;
69310;SDS011;56430;48.154;16.458;2023-08-21T01:01:50;9.83;;;6.67;;
69310;SDS011;56430;48.154;16.458;2023-08-21T01:04:17;12.90;;;6.50;;
69310;SDS011;56430;48.154;16.458;2023-08-21T01:06:43;10.90;;;6.70;;
69310;SDS011;56430;48.154;16.458;2023-08-21T01:09:12;10.50;;;7.20;;
69310;SDS011;56430;48.154;16.458;2023-08-21T01:11:42;12.20;;;6.82;;
69310;SDS011;56430;48.154;16.458;2023-08-21T01:14:14;13.48;;;6.97;;
69310;SDS011;56430;48.154;16.458;2023-08-21T01:16:43;9.80;;;6.50;;
69310;SDS011;56430;48.154;16.458;2023-08-21T01:19:14;12.73;;;6.88;;
69310;SDS011;56430;48.154;16.458;2023-08-21T01:21:45;10.38;;;6.72;;
69310;SDS011;56430;48.154;16.458;2023-08-21T01:24:13;11.38;;;6.75;;
69310;SDS011;56430;48.154;16.458;2023-08-21T01:26:40;11.45;;;7.00;;
69310;SDS011;56430;48.154;16.458;2023-08-21T01:29:07;13.80;;;7.63;;
69310;SDS011;56430;48.154;16.458;2023-08-21T01:31:34;10.88;;;6.65;;
69310;SDS011;56430;48.154;16.458;2023-08-21T01:34:04;13.38;;;7.35;;
69310;SDS011;56430;48.154;16.458;2023-08-21T01:36:31;11.57;;;7.20;;
69310;SDS011;56430;48.154;16.458;2023-08-21T01:38:58;9.10;;;6.15;;
69310;SDS011;56430;48.154;16.458;2023-08-21T01:41:27;10.67;;;6.90;;
69310;SDS011;56430;48.154;16.458;2023-08-21T01:43:53;10.80;;;7.30;;
69310;SDS011;56430;48.154;16.458;2023-08-21T01:46:20;10.35;;;6.68;;
69310;SDS011;56430;48.154;16.458;2023-08-21T01:48:47;10.52;;;7.18;;
69310;SDS011;56430;48.154;16.458;2023-08-21T01:51:14;10.25;;;6.63;;
69310;SDS011;56430;48.154;16.458;2023-08-21T01:53:41;14.05;;;7.30;;
69310;SDS011;56430;48.154;16.458;2023-08-21T01:56:08;10.17;;;6.77;;
69310;SDS011;56430;48.154;16.458;2023-08-21T01:58:36;11.52;;;7.55;;
69310;SDS011;56430;48.154;16.458;2023-08-21T02:01:03;13.55;;;7.00;;
69310;SDS011;56430;48.154;16.458;2023-08-21T02:03:30;9.15;;;6.35;;
69310;SDS011;56430;48.154;16.458;2023-08-21T02:05:57;13.85;;;7.15;;
69310;SDS011;56430;48.154;16.458;2023-08-21T02:08:25;12.50;;;7.00;;
69310;SDS011;56430;48.154;16.458;2023-08-21T02:10:53;10.48;;;6.55;;
69310;SDS011;56430;48.154;16.458;2023-08-21T02:13:32;10.68;;;7.00;;
69310;SDS011;56430;48.154;16.458;2023-08-21T02:16:00;12.45;;;6.82;;
69310;SDS011;56430;48.154;16.458;2023-08-21T02:18:27;10.55;;;6.95;;
69310;SDS011;56430;48.154;16.458;2023-08-21T02:20:54;10.03;;;6.83;;
69310;SDS011;56430;48.154;16.458;2023-08-21T02:23:21;10.87;;;6.90;;
69310;SDS011;56430;48.154;16.458;2023-08-21T02:25:49;15.02;;;7.70;;
69310;SDS011;56430;48.154;16.458;2023-08-21T02:28:16;12.13;;;7.43;;
69310;SDS011;56430;48.154;16.458;2023-08-21T02:30:43;13.02;;;7.70;;
69310;SDS011;56430;48.154;16.458;2023-08-21T02:33:11;11.43;;;7.25;;
69310;SDS011;56430;48.154;16.458;2023-08-21T02:35:38;11.70;;;7.57;;
69310;SDS011;56430;48.154;16.458;2023-08-21T02:38:05;12.02;;;8.30;;
69310;SDS011;56430;48.154;16.458;2023-08-21T02:40:32;12.63;;;7.75;;
69310;SDS011;56430;48.154;16.458;2023-08-21T02:42:58;12.73;;;7.88;;
69310;SDS011;56430;48.154;16.458;2023-08-21T02:45:25;12.07;;;7.50;;
69310;SDS011;56430;48.154;16.458;2023-08-21T02:47:52;13.63;;;8.03;;
69310;SDS011;56430;48.154;16.458;2023-08-21T02:50:20;16.15;;;7.15;;
69310;SDS011;56430;48.154;16.458;2023-08-21T02:52:47;9.95;;;7.43;;
69310;SDS011;56430;48.154;16.458;2023-08-21T02:55:14;10.93;;;7.25;;
69310;SDS011;56430;48.154;16.458;2023-08-21T02:57:41;12.50;;;7.90;;
69310;SDS011;56430;48.154;16.458;2023-08-21T03:00:08;11.33;;;7.20;;
69310;SDS011;56430;48.154;16.458;2023-08-21T03:02:35;14.63;;;7.72;;
69310;SDS011;56430;48.154;16.458;2023-08-21T03:05:02;13.30;;;8.40;;
69310;SDS011;56430;48.154;16.458;2023-08-21T03:07:31;13.52;;;7.90;;
69310;SDS011;56430;48.154;16.458;2023-08-21T03:09:58;12.38;;;7.53;;
69310;SDS011;56430;48.154;16.458;2023-08-21T03:12:27;13.03;;;7.47;;
69310;SDS011;56430;48.154;16.458;2023-08-21T03:14:54;13.10;;;7.95;;
69310;SDS011;56430;48.154;16.458;2023-08-21T03:17:21;14.20;;;7.90;;
69310;SDS011;56430;48.154;16.458;2023-08-21T03:19:47;10.95;;;7.35;;
69310;SDS011;56430;48.154;16.458;2023-08-21T03:22:14;12.15;;;7.47;;
69310;SDS011;56430;48.154;16.458;2023-08-21T03:24:42;13.23;;;7.57;;
69310;SDS011;56430;48.154;16.458;2023-08-21T03:27:09;14.52;;;8.02;;
69310;SDS011;56430;48.154;16.458;2023-08-21T03:29:36;13.25;;;7.32;;
69310;SDS011;56430;48.154;16.458;2023-08-21T03:32:03;11.40;;;7.37;;
69310;SDS011;56430;48.154;16.458;2023-08-21T03:34:30;12.45;;;7.40;;
69310;SDS011;56430;48.154;16.458;2023-08-21T03:36:57;11.23;;;6.80;;
69310;SDS011;56430;48.154;16.458;2023-08-21T03:39:24;12.05;;;7.10;;
69310;SDS011;56430;48.154;16.458;2023-08-21T03:41:52;12.55;;;7.43;;
69310;SDS011;56430;48.154;16.458;2023-08-21T03:44:18;15.60;;;7.20;;
69310;SDS011;56430;48.154;16.458;2023-08-21T03:46:45;11.43;;;7.50;;
69310;SDS011;56430;48.154;16.458;2023-08-21T03:49:12;12.02;;;6.85;;
69310;SDS011;56430;48.154;16.458;2023-08-21T03:51:39;12.02;;;7.45;;
69310;SDS011;56430;48.154;16.458;2023-08-21T03:54:06;11.65;;;7.10;;
69310;SDS011;56430;48.154;16.458;2023-08-21T03:56:32;12.30;;;7.50;;
69310;SDS011;56430;48.154;16.458;2023-08-21T03:59:01;12.60;;;7.43;;
69310;SDS011;56430;48.154;16.458;2023-08-21T04:01:27;10.52;;;6.88;;
69310;SDS011;56430;48.154;16.458;2023-08-21T04:03:54;13.73;;;7.88;;
69310;SDS011;56430;48.154;16.458;2023-08-21T04:06:21;11.52;;;7.18;;
69310;SDS011;56430;48.154;16.458;2023-08-21T04:08:48;13.23;;;7.60;;
69310;SDS011;56430;48.154;16.458;2023-08-21T04:11:15;12.27;;;7.18;;
69310;SDS011;56430;48.154;16.458;2023-08-21T04:13:42;11.70;;;7.30;;
69310;SDS011;56430;48.154;16.458;2023-08-21T04:16:10;12.23;;;7.25;;
69310;SDS011;56430;48.154;16.458;2023-08-21T04:18:37;14.80;;;8.13;;
69310;SDS011;56430;48.154;16.458;2023-08-21T04:21:04;11.27;;;7.70;;
69310;SDS011;56430;48.154;16.458;2023-08-21T04:23:31;11.93;;;7.53;;
69310;SDS011;56430;48.154;16.458;2023-08-21T04:25:59;16.20;;;7.13;;
69310;SDS011;56430;48.154;16.458;2023-08-21T04:28:26;11.50;;;6.85;;
69310;SDS011;56430;48.154;16.458;2023-08-21T04:30:53;12.82;;;7.80;;
69310;SDS011;56430;48.154;16.458;2023-08-21T04:33:21;18.47;;;7.37;;
69310;SDS011;56430;48.154;16.458;2023-08-21T04:35:48;14.25;;;6.88;;
69310;SDS011;56430;48.154;16.458;2023-08-21T04:38:15;14.38;;;7.03;;
69310;SDS011;56430;48.154;16.458;2023-08-21T04:40:42;12.70;;;6.80;;
69310;SDS011;56430;48.154;16.458;2023-08-21T04:43:09;13.05;;;7.05;;
69310;SDS011;56430;48.154;16.458;2023-08-21T04:45:35;13.97;;;7.60;;
69310;SDS011;56430;48.154;16.458;2023-08-21T04:48:03;11.75;;;7.15;;
69310;SDS011;56430;48.154;16.458;2023-08-21T04:50:31;12.18;;;7.05;;
69310;SDS011;56430;48.154;16.458;2023-08-21T04:52:58;12.13;;;7.38;;
69310;SDS011;56430;48.154;16.458;2023-08-21T04:55:25;11.73;;;7.72;;
69310;SDS011;56430;48.154;16.458;2023-08-21T04:57:52;14.83;;;8.43;;
69310;SDS011;56430;48.154;16.458;2023-08-21T05:00:19;16.58;;;7.72;;
69310;SDS011;56430;48.154;16.458;2023-08-21T05:02:45;12.45;;;7.22;;
69310;SDS011;56430;48.154;16.458;2023-08-21T05:05:12;15.13;;;7.97;;
69310;SDS011;56430;48.154;16.458;2023-08-21T05:07:40;12.55;;;7.35;;
69310;SDS011;56430;48.154;16.458;2023-08-21T05:10:08;15.60;;;7.80;;
69310;SDS011;56430;48.154;16.458;2023-08-21T05:12:35;13.88;;;8.20;;
69310;SDS011;56430;48.154;16.458;2023-08-21T05:15:02;23.85;;;8.07;;
69310;SDS011;56430;48.154;16.458;2023-08-21T05:17:29;12.85;;;7.32;;
69310;SDS011;56430;48.154;16.458;2023-08-21T05:19:56;18.10;;;8.25;;
69310;SDS011;56430;48.154;16.458;2023-08-21T05:22:23;14.30;;;8.00;;
69310;SDS011;56430;48.154;16.458;2023-08-21T05:24:51;22.23;;;8.70;;
69310;SDS011;56430;48.154;16.458;2023-08-21T05:27:18;15.75;;;9.02;;
69310;SDS011;56430;48.154;16.458;2023-08-21T05:29:44;23.77;;;8.65;;
69310;SDS011;56430;48.154;16.458;2023-08-21T05:32:11;19.55;;;8.70;;
69310;SDS011;56430;48.154;16.458;2023-08-21T05:34:38;13.90;;;8.10;;
69310;SDS011;56430;48.154;16.458;2023-08-21T05:37:05;14.10;;;8.47;;
69310;SDS011;56430;48.154;16.458;2023-08-21T05:39:32;13.82;;;7.80;;
69310;SDS011;56430;48.154;16.458;2023-08-21T05:42:00;12.15;;;8.10;;
69310;SDS011;56430;48.154;16.458;2023-08-21T05:44:27;13.82;;;7.72;;
69310;SDS011;56430;48.154;16.458;2023-08-21T05:46:54;14.55;;;8.13;;
69310;SDS011;56430;48.154;16.458;2023-08-21T05:49:21;11.33;;;7.27;;
69310;SDS011;56430;48.154;16.458;2023-08-21T05:51:48;12.50;;;7.73;;
69310;SDS011;56430;48.154;16.458;2023-08-21T05:54:14;13.85;;;7.60;;
69310;SDS011;56430;48.154;16.458;2023-08-21T05:56:41;14.77;;;7.25;;
69310;SDS011;56430;48.154;16.458;2023-08-21T05:59:10;13.13;;;7.53;;
69310;SDS011;56430;48.154;16.458;2023-08-21T06:01:37;12.60;;;7.35;;
69310;SDS011;56430;48.154;16.458;2023-08-21T06:04:04;11.60;;;7.43;;
69310;SDS011;56430;48.154;16.458;2023-08-21T06:06:31;13.00;;;7.23;;
69310;SDS011;56430;48.154;16.458;2023-08-21T06:08:58;12.23;;;7.28;;
69310;SDS011;56430;48.154;16.458;2023-08-21T06:11:25;17.38;;;7.60;;
69310;SDS011;56430;48.154;16.458;2023-08-21T06:13:52;12.77;;;7.30;;
69310;SDS011;56430;48.154;16.458;2023-08-21T06:16:20;15.18;;;8.27;;
69310;SDS011;56430;48.154;16.458;2023-08-21T06:18:46;10.05;;;7.43;;
69310;SDS011;56430;48.154;16.458;2023-08-21T06:21:13;14.83;;;7.20;;
69310;SDS011;56430;48.154;16.458;2023-08-21T06:23:40;15.97;;;7.33;;
69310;SDS011;56430;48.154;16.458;2023-08-21T06:26:07;14.95;;;7.40;;
69310;SDS011;56430;48.154;16.458;2023-08-21T06:28:34;17.42;;;7.70;;
69310;SDS011;56430;48.154;16.458;2023-08-21T06:31:01;11.57;;;6.57;;
69310;SDS011;56430;48.154;16.458;2023-08-21T06:33:30;13.75;;;6.78;;
69310;SDS011;56430;48.154;16.458;2023-08-21T06:35:57;13.20;;;6.85;;
69310;SDS011;56430;48.154;16.458;2023-08-21T06:38:24;13.02;;;6.72;;
69310;SDS011;56430;48.154;16.458;2023-08-21T06:40:51;11.75;;;6.93;;
69310;SDS011;56430;48.154;16.458;2023-08-21T06:43:18;12.50;;;7.10;;
69310;SDS011;56430;48.154;16.458;2023-08-21T06:45:45;14.33;;;6.73;;
69310;SDS011;56430;48.154;16.458;2023-08-21T06:48:11;15.27;;;7.50;;
69310;SDS011;56430;48.154;16.458;2023-08-21T06:50:40;11.57;;;7.28;;
69310;SDS011;56430;48.154;16.458;2023-08-21T06:53:06;11.18;;;6.65;;
69310;SDS011;56430;48.154;16.458;2023-08-21T06:55:33;10.93;;;6.90;;
69310;SDS011;56430;48.154;16.458;2023-08-21T06:58:00;9.27;;;6.72;;
69310;SDS011;56430;48.154;16.458;2023-08-21T07:00:27;10.70;;;7.07;;
69310;SDS011;56430;48.154;16.458;2023-08-21T07:02:54;10.90;;;7.38;;
69310;SDS011;56430;48.154;16.458;2023-08-21T07:05:20;10.48;;;7.40;;
69310;SDS011;56430;48.154;16.458;2023-08-21T07:07:49;11.03;;;7.07;;
69310;SDS011;56430;48.154;16.458;2023-08-21T07:10:16;12.63;;;7.67;;
69310;SDS011;56430;48.154;16.458;2023-08-21T07:12:42;9.30;;;7.32;;
69310;SDS011;56430;48.154;16.458;2023-08-21T07:15:10;10.00;;;6.95;;
69310;SDS011;56430;48.154;16.458;2023-08-21T07:17:36;9.48;;;7.25;;
69310;SDS011;56430;48.154;16.458;2023-08-21T07:20:04;10.73;;;7.88;;
69310;SDS011;56430;48.154;16.458;2023-08-21T07:22:31;11.65;;;7.40;;
69310;SDS011;56430;48.154;16.458;2023-08-21T07:24:59;11.23;;;7.93;;
69310;SDS011;56430;48.154;16.458;2023-08-21T07:27:29;10.35;;;7.47;;
69310;SDS011;56430;48.154;16.458;2023-08-21T07:29:56;10.20;;;7.25;;
69310;SDS011;56430;48.154;16.458;2023-08-21T07:32:23;10.73;;;7.33;;
69310;SDS011;56430;48.154;16.458;2023-08-21T07:34:51;9.10;;;7.13;;
69310;SDS011;56430;48.154;16.458;2023-08-21T07:37:18;9.82;;;7.30;;
69310;SDS011;56430;48.154;16.458;2023-08-21T07:39:45;10.15;;;7.82;;
69310;SDS011;56430;48.154;16.458;2023-08-21T07:42:13;9.88;;;6.82;;
69310;SDS011;56430;48.154;16.458;2023-08-21T07:44:40;9.90;;;7.88;;
69310;SDS011;56430;48.154;16.458;2023-08-21T07:47:07;13.00;;;9.85;;
69310;SDS011;56430;48.154;16.458;2023-08-21T07:49:33;10.80;;;8.65;;
69310;SDS011;56430;48.154;16.458;2023-08-21T07:52:00;10.95;;;9.18;;
69310;SDS011;56430;48.154;16.458;2023-08-21T07:54:29;10.93;;;8.52;;
69310;SDS011;56430;48.154;16.458;2023-08-21T07:56:56;10.07;;;8.63;;
69310;SDS011;56430;48.154;16.458;2023-08-21T07:59:24;12.67;;;9.23;;
69310;SDS011;56430;48.154;16.458;2023-08-21T08:01:51;13.00;;;9.25;;
69310;SDS011;56430;48.154;16.458;2023-08-21T08:04:18;11.75;;;9.65;;
69310;SDS011;56430;48.154;16.458;2023-08-21T08:06:46;10.95;;;9.85;;
69310;SDS011;56430;48.154;16.458;2023-08-21T08:09:12;11.40;;;10.18;;
69310;SDS011;56430;48.154;16.458;2023-08-21T08:11:39;12.57;;;10.15;;
69310;SDS011;56430;48.154;16.458;2023-08-21T08:14:06;12.75;;;9.93;;
69310;SDS011;56430;48.154;16.458;2023-08-21T08:16:34;10.70;;;9.52;;
69310;SDS011;56430;48.154;16.458;2023-08-21T08:19:01;12.63;;;9.93;;
69310;SDS011;56430;48.154;16.458;2023-08-21T08:21:28;11.67;;;10.57;;
69310;SDS011;56430;48.154;16.458;2023-08-21T08:23:55;10.97;;;9.97;;
69310;SDS011;56430;48.154;16.458;2023-08-21T08:26:22;11.35;;;10.25;;
69310;SDS011;56430;48.154;16.458;2023-08-21T08:28:49;13.27;;;11.65;;
69310;SDS011;56430;48.154;16.458;2023-08-21T08:31:16;12.10;;;10.90;;
69310;SDS011;56430;48.154;16.458;2023-08-21T08:33:44;11.85;;;10.65;;
69310;SDS011;56430;48.154;16.458;2023-08-21T08:36:11;12.98;;;11.88;;
69310;SDS011;56430;48.154;16.458;2023-08-21T08:38:38;12.02;;;10.90;;
69310;SDS011;56430;48.154;16.458;2023-08-21T08:41:06;13.43;;;12.20;;
69310;SDS011;56430;48.154;16.458;2023-08-21T08:43:33;13.48;;;12.07;;
69310;SDS011;56430;48.154;16.458;2023-08-21T08:46:01;12.60;;;11.60;;
69310;SDS011;56430;48.154;16.458;2023-08-21T08:48:29;13.30;;;12.00;;
69310;SDS011;56430;48.154;16.458;2023-08-21T08:50:57;13.73;;;12.00;;
69310;SDS011;56430;48.154;16.458;2023-08-21T08:53:24;12.90;;;11.85;;
69310;SDS011;56430;48.154;16.458;2023-08-21T08:55:51;15.68;;;14.38;;
69310;SDS011;56430;48.154;16.458;2023-08-21T08:58:18;15.40;;;14.02;;
69310;SDS011;56430;48.154;16.458;2023-08-21T09:00:45;14.98;;;13.68;;
69310;SDS011;56430;48.154;16.458;2023-08-21T09:03:12;14.18;;;13.02;;
69310;SDS011;56430;48.154;16.458;2023-08-21T09:05:39;16.20;;;14.82;;
69310;SDS011;56430;48.154;16.458;2023-08-21T09:08:11;15.98;;;14.50;;
69310;SDS011;56430;48.154;16.458;2023-08-21T09:10:38;16.37;;;14.73;;
69310;SDS011;56430;48.154;16.458;2023-08-21T09:13:11;15.80;;;14.60;;
69310;SDS011;56430;48.154;16.458;2023-08-21T09:15:38;15.52;;;14.23;;
69310;SDS011;56430;48.154;16.458;2023-08-21T09:18:08;16.15;;;14.93;;
69310;SDS011;56430;48.154;16.458;2023-08-21T09:20:35;16.48;;;15.25;;
69310;SDS011;56430;48.154;16.458;2023-08-21T09:23:02;16.00;;;14.65;;
69310;SDS011;56430;48.154;16.458;2023-08-21T09:25:34;17.98;;;16.33;;
69310;SDS011;56430;48.154;16.458;2023-08-21T09:28:04;17.00;;;15.60;;
69310;SDS011;56430;48.154;16.458;2023-08-21T09:30:42;18.60;;;17.17;;
69310;SDS011;56430;48.154;16.458;2023-08-21T09:33:09;17.80;;;16.50;;
69310;SDS011;56430;48.154;16.458;2023-08-21T09:35:36;27.83;;;15.73;;
69310;SDS011;56430;48.154;16.458;2023-08-21T09:38:03;16.60;;;15.30;;
69310;SDS011;56430;48.154;16.458;2023-08-21T09:40:30;17.70;;;16.25;;
69310;SDS011;56430;48.154;16.458;2023-08-21T09:42:58;16.95;;;15.38;;
69310;SDS011;56430;48.154;16.458;2023-08-21T09:45:26;17.23;;;15.80;;
69310;SDS011;56430;48.154;16.458;2023-08-21T09:47:54;15.73;;;14.27;;
69310;SDS011;56430;48.154;16.458;2023-08-21T09:50:21;16.48;;;15.27;;
69310;SDS011;56430;48.154;16.458;2023-08-21T09:52:48;16.50;;;15.07;;
69310;SDS011;56430;48.154;16.458;2023-08-21T09:55:15;17.85;;;16.48;;
69310;SDS011;56430;48.154;16.458;2023-08-21T09:57:42;17.73;;;16.42;;
69310;SDS011;56430;48.154;16.458;2023-08-21T10:00:11;16.97;;;15.77;;
69310;SDS011;56430;48.154;16.458;2023-08-21T10:02:41;18.10;;;16.70;;
69310;SDS011;56430;48.154;16.458;2023-08-21T10:05:09;18.10;;;16.80;;
69310;SDS011;56430;48.154;16.458;2023-08-21T10:07:36;17.35;;;16.05;;
69310;SDS011;56430;48.154;16.458;2023-08-21T10:10:03;17.80;;;16.40;;
69310;SDS011;56430;48.154;16.458;2023-08-21T10:12:30;18.33;;;16.92;;
69310;SDS011;56430;48.154;16.458;2023-08-21T10:14:57;53.55;;;16.83;;
69310;SDS011;56430;48.154;16.458;2023-08-21T10:17:25;21.30;;;15.20;;
69310;SDS011;56430;48.154;16.458;2023-08-21T10:19:52;16.67;;;15.18;;
69310;SDS011;56430;48.154;16.458;2023-08-21T10:25:00;15.93;;;14.53;;
69310;SDS011;56430;48.154;16.458;2023-08-21T10:27:29;15.57;;;14.37;;
69310;SDS011;56430;48.154;16.458;2023-08-21T10:29:56;16.55;;;15.00;;
69310;SDS011;56430;48.154;16.458;2023-08-21T10:32:24;17.13;;;15.73;;
69310;SDS011;56430;48.154;16.458;2023-08-21T10:34:51;16.10;;;14.93;;
69310;SDS011;56430;48.154;16.458;2023-08-21T10:37:19;15.80;;;14.70;;
69310;SDS011;56430;48.154;16.458;2023-08-21T10:39:56;16.45;;;15.35;;
69310;SDS011;56430;48.154;16.458;2023-08-21T10:42:37;14.57;;;13.57;;
69310;SDS011;56430;48.154;16.458;2023-08-21T10:45:09;15.77;;;14.23;;
69310;SDS011;56430;48.154;16.458;2023-08-21T10:47:38;15.27;;;14.27;;
69310;SDS011;56430;48.154;16.458;2023-08-21T10:50:05;14.87;;;13.77;;
69310;SDS011;56430;48.154;16.458;2023-08-21T10:52:34;14.77;;;13.77;;
69310;SDS011;56430;48.154;16.458;2023-08-21T10:55:01;15.10;;;13.68;;
69310;SDS011;56430;48.154;16.458;2023-08-21T10:57:29;15.55;;;14.43;;
69310;SDS011;56430;48.154;16.458;2023-08-21T10:59:57;15.10;;;13.90;;
69310;SDS011;56430;48.154;16.458;2023-08-21T11:02:24;14.43;;;13.43;;
69310;SDS011;56430;48.154;16.458;2023-08-21T11:04:53;13.80;;;12.70;;
69310;SDS011;56430;48.154;16.458;2023-08-21T11:07:20;13.90;;;12.80;;
69310;SDS011;56430;48.154;16.458;2023-08-21T11:09:47;13.85;;;12.85;;
69310;SDS011;56430;48.154;16.458;2023-08-21T11:12:14;13.35;;;12.35;;
69310;SDS011;56430;48.154;16.458;2023-08-21T11:14:42;13.13;;;12.03;;
69310;SDS011;56430;48.154;16.458;2023-08-21T11:17:09;14.73;;;13.63;;
69310;SDS011;56430;48.154;16.458;2023-08-21T11:19:36;12.40;;;11.50;;
69310;SDS011;56430;48.154;16.458;2023-08-21T11:22:05;12.85;;;11.95;;
69310;SDS011;56430;48.154;16.458;2023-08-21T11:24:38;13.35;;;12.23;;
69310;SDS011;56430;48.154;16.458;2023-08-21T11:27:06;13.10;;;12.18;;
69310;SDS011;56430;48.154;16.458;2023-08-21T11:29:36;12.07;;;11.00;;
69310;SDS011;56430;48.154;16.458;2023-08-21T11:32:03;12.27;;;11.13;;
69310;SDS011;56430;48.154;16.458;2023-08-21T11:34:31;10.95;;;9.60;;
69310;SDS011;56430;48.154;16.458;2023-08-21T11:36:59;9.50;;;8.60;;
69310;SDS011;56430;48.154;16.458;2023-08-21T11:39:27;11.87;;;9.80;;
69310;SDS011;56430;48.154;16.458;2023-08-21T11:42:08;10.37;;;9.17;;
69310;SDS011;56430;48.154;16.458;2023-08-21T11:44:39;8.73;;;7.93;;
69310;SDS011;56430;48.154;16.458;2023-08-21T11:47:06;9.80;;;7.95;;
69310;SDS011;56430;48.154;16.458;2023-08-21T11:49:33;9.70;;;8.20;;
69310;SDS011;56430;48.154;16.458;2023-08-21T11:51:59;8.20;;;7.45;;
69310;SDS011;56430;48.154;16.458;2023-08-21T11:54:33;11.23;;;6.82;;
69310;SDS011;56430;48.154;16.458;2023-08-21T11:57:03;6.75;;;6.15;;
69310;SDS011;56430;48.154;16.458;2023-08-21T11:59:30;8.75;;;6.90;;
69310;SDS011;56430;48.154;16.458;2023-08-21T12:01:56;9.50;;;6.60;;
69310;SDS011;56430;48.154;16.458;2023-08-21T12:04:23;7.27;;;6.57;;
69310;SDS011;56430;48.154;16.458;2023-08-21T12:06:50;6.57;;;5.87;;
69310;SDS011;56430;48.154;16.458;2023-08-21T12:09:17;6.15;;;5.55;;
69310;SDS011;56430;48.154;16.458;2023-08-21T12:11:45;10.55;;;5.97;;
69310;SDS011;56430;48.154;16.458;2023-08-21T12:14:12;7.68;;;6.07;;
69310;SDS011;56430;48.154;16.458;2023-08-21T12:16:39;7.53;;;5.95;;
69310;SDS011;56430;48.154;16.458;2023-08-21T12:19:06;5.93;;;5.40;;
69310;SDS011;56430;48.154;16.458;2023-08-21T12:21:34;5.60;;;5.10;;
69310;SDS011;56430;48.154;16.458;2023-08-21T12:24:03;7.18;;;5.32;;
69310;SDS011;56430;48.154;16.458;2023-08-21T12:26:30;6.10;;;5.50;;
69310;SDS011;56430;48.154;16.458;2023-08-21T12:28:59;6.00;;;5.40;;
69310;SDS011;56430;48.154;16.458;2023-08-21T12:31:26;6.10;;;5.27;;
69310;SDS011;56430;48.154;16.458;2023-08-21T12:33:53;5.80;;;5.30;;
69310;SDS011;56430;48.154;16.458;2023-08-21T12:36:20;5.20;;;4.68;;
69310;SDS011;56430;48.154;16.458;2023-08-21T12:38:47;6.22;;;5.20;;
69310;SDS011;56430;48.154;16.458;2023-08-21T12:41:13;8.20;;;5.00;;
69310;SDS011;56430;48.154;16.458;2023-08-21T12:43:40;8.10;;;5.15;;
69310;SDS011;56430;48.154;16.458;2023-08-21T12:46:08;6.32;;;4.93;;
69310;SDS011;56430;48.154;16.458;2023-08-21T12:48:35;5.43;;;4.70;;
69310;SDS011;56430;48.154;16.458;2023-08-21T12:51:02;5.40;;;4.90;;
69310;SDS011;56430;48.154;16.458;2023-08-21T12:53:29;6.53;;;4.50;;
69310;SDS011;56430;48.154;16.458;2023-08-21T12:55:56;5.30;;;4.80;;
69310;SDS011;56430;48.154;16.458;2023-08-21T12:58:23;6.28;;;4.70;;
69310;SDS011;56430;48.154;16.458;2023-08-21T13:00:49;4.65;;;4.00;;
69310;SDS011;56430;48.154;16.458;2023-08-21T13:03:18;6.10;;;4.60;;
69310;SDS011;56430;48.154;16.458;2023-08-21T13:05:45;6.03;;;5.43;;
69310;SDS011;56430;48.154;16.458;2023-08-21T13:08:12;5.30;;;4.78;;
69310;SDS011;56430;48.154;16.458;2023-08-21T13:10:39;5.30;;;4.80;;
69310;SDS011;56430;48.154;16.458;2023-08-21T13:13:06;4.90;;;4.40;;
69310;SDS011;56430;48.154;16.458;2023-08-21T13:15:33;6.55;;;5.13;;
69310;SDS011;56430;48.154;16.458;2023-08-21T13:18:00;6.23;;;5.30;;
69310;SDS011;56430;48.154;16.458;2023-08-21T13:20:28;7.00;;;5.70;;
69310;SDS011;56430;48.154;16.458;2023-08-21T13:22:55;6.00;;;5.40;;
69310;SDS011;56430;48.154;16.458;2023-08-21T13:25:22;8.07;;;6.00;;
69310;SDS011;56430;48.154;16.458;2023-08-21T13:27:50;12.13;;;6.22;;
69310;SDS011;56430;48.154;16.458;2023-08-21T13:30:17;7.60;;;5.70;;
69310;SDS011;56430;48.154;16.458;2023-08-21T13:32:44;6.43;;;5.45;;
69310;SDS011;56430;48.154;16.458;2023-08-21T13:35:11;7.25;;;5.63;;
69310;SDS011;56430;48.154;16.458;2023-08-21T13:37:39;7.55;;;5.50;;
69310;SDS011;56430;48.154;16.458;2023-08-21T13:40:06;6.22;;;5.40;;
69310;SDS011;56430;48.154;16.458;2023-08-21T13:42:37;7.73;;;5.53;;
69310;SDS011;56430;48.154;16.458;2023-08-21T13:45:07;5.77;;;5.17;;
69310;SDS011;56430;48.154;16.458;2023-08-21T13:47:34;6.30;;;5.18;;
69310;SDS011;56430;48.154;16.458;2023-08-21T13:50:00;8.23;;;5.15;;
69310;SDS011;56430;48.154;16.458;2023-08-21T13:52:27;7.78;;;5.18;;
69310;SDS011;56430;48.154;16.458;2023-08-21T13:54:55;8.00;;;4.80;;
69310;SDS011;56430;48.154;16.458;2023-08-21T13:57:22;5.60;;;4.80;;
69310;SDS011;56430;48.154;16.458;2023-08-21T13:59:49;7.25;;;4.78;;
69310;SDS011;56430;48.154;16.458;2023-08-21T14:02:16;6.28;;;4.75;;
69310;SDS011;56430;48.154;16.458;2023-08-21T14:04:44;8.15;;;4.20;;
69310;SDS011;56430;48.154;16.458;2023-08-21T14:07:10;7.50;;;4.30;;
69310;SDS011;56430;48.154;16.458;2023-08-21T14:09:37;6.00;;;4.60;;
69310;SDS011;56430;48.154;16.458;2023-08-21T14:12:06;7.72;;;4.57;;
69310;SDS011;56430;48.154;16.458;2023-08-21T14:14:33;5.40;;;4.18;;
69310;SDS011;56430;48.154;16.458;2023-08-21T14:17:00;8.00;;;4.30;;
69310;SDS011;56430;48.154;16.458;2023-08-21T14:19:27;5.03;;;4.43;;
69310;SDS011;56430;48.154;16.458;2023-08-21T14:21:54;5.78;;;4.47;;
69310;SDS011;56430;48.154;16.458;2023-08-21T14:24:20;11.00;;;4.38;;